Time;durP1;ratioP1;P1;durP2;ratioP2;P2;SDS_P1;SDS_P2;PMS_P1;PMS_P2;Temp;Humidity;BMP_temperature;BMP_pressure;BME280_temperature;BME280_humidity;BME280_pressure;Samples;Min_cycle;Max_cycle;Signal;HPM_P1;HPM_P2
2023/11/27 00:01:04;;;;;;;;;;;;;;;17.91;36.45;100046.75;4957726;28;1140;-50
2023/11/27 00:03:30;;;;;;;;;;;;;;;16.75;38.36;100058.47;4957950;28;866;-55
2023/11/27 00:05:55;;;;;;;;;;;;;;;17.58;37.13;100054.13;4957462;28;1985;-53
2023/11/27 00:08:21;;;;;;;;;;;;;;;17.79;36.44;100059.34;4958243;28;1074;-49
2023/11/27 00:10:46;;;;;;;;;;;;;;;15.09;42.64;100063.72;4957789;28;1152;-53
2023/11/27 00:13:12;;;;;;;;;;;;;;;18.10;36.17;100067.22;4957821;28;1061;-54
2023/11/27 00:15:37;;;;;;;;;;;;;;;16.79;38.43;100051.94;4961454;28;1415;-52
2023/11/27 00:18:03;;;;;;;;;;;;;;;16.28;39.43;100051.75;4960013;28;1065;-48
2023/11/27 00:20:28;;;;;;;;;;;;;;;17.66;36.66;100058.75;4961509;28;1149;-55
2023/11/27 00:22:54;;;;;;;;;;;;;;;16.41;39.01;100072.78;4961209;28;1199;-51
2023/11/27 00:25:19;;;;;;;;;;;;;;;17.51;37.38;100067.13;4960884;28;1922;-55
2023/11/27 00:27:45;;;;;;;;;;;;;;;17.11;37.80;100076.75;4961085;28;1062;-55
2023/11/27 00:30:11;;;;;;;;;;;;;;;16.26;39.79;100086.38;4958502;28;1144;-54
2023/11/27 00:32:37;;;;;;;;;;;;;;;18.38;35.58;100071.03;4949891;29;1066;-58
2023/11/27 00:35:02;;;;;;;;;;;;;;;16.68;38.69;100090.03;4961018;28;1201;-55
2023/11/27 00:37:28;;;;;;;;;;;;;;;16.86;38.59;100097.41;4960928;28;1137;-57
2023/11/27 00:39:54;;;;;;;;;;;;;;;17.11;37.91;100082.91;4960565;28;1045;-55
2023/11/27 00:42:20;;;;;;;;;;;;;;;16.42;39.44;100084.22;4960014;28;1320;-54
2023/11/27 00:44:46;;;;;;;;;;;;;;;17.88;36.85;100084.28;4973480;28;1973;-54
2023/11/27 00:47:11;;;;;;;;;;;;;;;16.70;38.60;100080.09;4959228;28;1098;-54
2023/11/27 00:49:37;;;;;;;;;;;;;;;17.92;36.64;100087.50;4960447;28;1009;-56
2023/11/27 00:52:02;;;;;;;;;;;;;;;17.41;36.67;100085.69;4960893;28;1010;-57
2023/11/27 00:54:28;;;;;;;;;;;;;;;15.40;42.32;100102.88;4960647;28;1081;-55
2023/11/27 00:56:53;;;;;;;;;;;;;;;18.20;36.07;100106.38;4960735;28;1126;-55
2023/11/27 00:59:19;;;;;;;;;;;;;;;16.87;38.23;100107.06;4960649;28;1265;-56
2023/11/27 01:01:45;;;;;;;;;;;;;;;16.22;40.08;100111.47;4959297;28;1310;-57
2023/11/27 01:04:11;;;;;;;;;;;;;;;17.56;36.84;100109.25;4958735;28;1053;-56
2023/11/27 01:06:36;;;;;;;;;;;;;;;16.34;39.17;100106.97;4959267;28;1918;-56
2023/11/27 01:09:02;;;;;;;;;;;;;;;18.25;35.98;100105.94;4962096;28;1069;-55
2023/11/27 01:11:28;;;;;;;;;;;;;;;17.21;37.61;100101.56;4971714;28;1105;-57
2023/11/27 01:13:55;;;;;;;;;;;;;;;16.35;39.24;100110.47;4961858;28;1192;-52
2023/11/27 01:16:21;;;;;;;;;;;;;;;16.11;39.78;100120.31;4971761;28;1184;-54
2023/11/27 01:18:47;;;;;;;;;;;;;;;17.45;37.07;100113.69;4959894;28;1022;-57
2023/11/27 01:21:12;;;;;;;;;;;;;;;16.20;39.47;100118.69;4960252;28;1073;-58
2023/11/27 01:23:38;;;;;;;;;;;;;;;18.25;35.91;100120.06;4958662;28;1405;-58
2023/11/27 01:26:04;;;;;;;;;;;;;;;17.21;37.54;100119.31;4960355;28;1914;-55
2023/11/27 01:28:29;;;;;;;;;;;;;;;16.33;39.38;100123.84;4958561;28;1085;-58
2023/11/27 01:30:55;;;;;;;;;;;;;;;17.73;37.02;100111.25;4960244;28;1061;-57
2023/11/27 01:33:21;;;;;;;;;;;;;;;16.75;38.56;100125.72;4959770;28;1050;-57
2023/11/27 01:35:47;;;;;;;;;;;;;;;16.63;39.00;100132.06;4959758;28;1061;-58
2023/11/27 01:38:12;;;;;;;;;;;;;;;17.53;36.80;100120.16;4959455;28;1093;-59
2023/11/27 01:40:38;;;;;;;;;;;;;;;16.48;38.91;100132.34;4958526;28;1208;-57
2023/11/27 01:43:14;;;;;;;;;;;;;;;17.12;38.11;100127.13;4959707;28;1228;-55
2023/11/27 01:45:39;;;;;;;;;;;;;;;16.56;38.76;100130.88;4959740;28;1914;-57
2023/11/27 01:48:06;;;;;;;;;;;;;;;17.26;37.83;100130.41;4959670;28;1125;-56
2023/11/27 01:50:31;;;;;;;;;;;;;;;18.07;35.89;100127.88;4959748;28;1061;-56
2023/11/27 01:52:57;;;;;;;;;;;;;;;14.54;43.64;100141.94;4959471;28;1161;-58
2023/11/27 01:55:22;;;;;;;;;;;;;;;17.92;36.63;100146.03;4959930;28;1102;-58
2023/11/27 01:57:48;;;;;;;;;;;;;;;16.98;37.96;100152.16;4941712;29;1071;-59
2023/11/27 02:00:14;;;;;;;;;;;;;;;16.12;39.78;100150.31;4942181;29;1260;-57
2023/11/27 02:02:45;;;;;;;;;;;;;;;18.12;36.08;100149.59;4958182;28;1172;-56
2023/11/27 02:05:11;;;;;;;;;;;;;;;16.58;39.00;100160.81;4958544;28;1902;-58
2023/11/27 02:07:37;;;;;;;;;;;;;;;16.98;38.63;100161.97;4959744;28;1132;-56
2023/11/27 02:10:03;;;;;;;;;;;;;;;17.01;37.91;100175.00;4957721;28;1105;-57
2023/11/27 02:12:29;;;;;;;;;;;;;;;16.46;39.14;100168.81;4957875;28;1062;-57
2023/11/27 02:14:54;;;;;;;;;;;;;;;18.49;35.34;100166.78;4968193;28;1213;-58
2023/11/27 02:17:20;;;;;;;;;;;;;;;14.59;43.85;100165.41;4960390;28;1169;-57
2023/11/27 02:19:45;;;;;;;;;;;;;;;17.87;36.89;100173.06;4957825;28;1166;-55
2023/11/27 02:22:11;;;;;;;;;;;;;;;17.43;37.00;100162.66;4958160;28;1232;-56
2023/11/27 02:24:37;;;;;;;;;;;;;;;16.46;38.88;100167.97;4957765;28;1921;-57
2023/11/27 02:27:03;;;;;;;;;;;;;;;15.98;39.80;100177.94;4957483;28;1911;-57
2023/11/27 02:29:29;;;;;;;;;;;;;;;17.51;36.84;100173.50;4958679;28;1049;-57
2023/11/27 02:31:54;;;;;;;;;;;;;;;16.17;39.67;100177.34;4958037;28;1200;-58
2023/11/27 02:34:20;;;;;;;;;;;;;;;17.86;36.70;100179.38;4959045;28;1100;-57
2023/11/27 02:36:45;;;;;;;;;;;;;;;17.22;37.40;100192.75;4970265;28;1097;-57
2023/11/27 02:39:11;;;;;;;;;;;;;;;16.48;39.31;100203.22;4958491;28;1106;-58
2023/11/27 02:41:37;;;;;;;;;;;;;;;16.06;39.81;100204.75;4956571;28;1102;-56
2023/11/27 02:44:03;;;;;;;;;;;;;;;17.17;37.77;100202.94;4958748;28;1136;-57
2023/11/27 02:46:29;;;;;;;;;;;;;;;16.62;38.99;100218.84;4958549;28;1910;-57
2023/11/27 02:48:55;;;;;;;;;;;;;;;18.54;35.22;100206.31;4958856;28;1081;-56
2023/11/27 02:51:20;;;;;;;;;;;;;;;14.27;43.55;100217.06;4958385;28;1136;-57
2023/11/27 02:53:45;;;;;;;;;;;;;;;17.21;38.27;100215.00;4958610;28;1080;-57
2023/11/27 02:56:11;;;;;;;;;;;;;;;17.84;36.45;100210.59;4958424;28;1125;-55
2023/11/27 02:58:39;;;;;;;;;;;;;;;16.43;38.95;100219.53;4958266;28;1148;-58
2023/11/27 03:01:07;;;;;;;;;;;;;;;17.54;37.17;100220.25;4958272;28;1082;-57
2023/11/27 03:03:34;;;;;;;;;;;;;;;16.85;38.09;100218.75;4958008;28;1030;-57
2023/11/27 03:06:00;;;;;;;;;;;;;;;16.31;39.46;100231.97;4956597;28;1976;-58
2023/11/27 03:08:25;;;;;;;;;;;;;;;17.98;36.15;100233.34;4958724;28;1129;-56
2023/11/27 03:10:50;;;;;;;;;;;;;;;16.55;38.48;100244.22;4957785;28;1035;-58
2023/11/27 03:13:16;;;;;;;;;;;;;;;18.10;36.12;100248.22;4958409;28;1129;-57
2023/11/27 03:15:41;;;;;;;;;;;;;;;17.32;37.06;100260.13;4958009;28;1054;-55
2023/11/27 03:18:07;;;;;;;;;;;;;;;16.47;39.07;100257.25;4958505;28;1088;-57
2023/11/27 03:20:33;;;;;;;;;;;;;;;18.09;35.99;100265.19;4957057;28;1323;-56
2023/11/27 03:22:58;;;;;;;;;;;;;;;16.64;38.37;100270.03;4958079;28;1134;-57
2023/11/27 03:25:24;;;;;;;;;;;;;;;17.80;36.70;100267.72;4957844;28;1919;-59
2023/11/27 03:27:49;;;;;;;;;;;;;;;16.28;38.62;100269.38;4957882;28;913;-58
2023/11/27 03:30:15;;;;;;;;;;;;;;;16.46;39.45;100271.53;4956957;28;1097;-57
2023/11/27 03:32:40;;;;;;;;;;;;;;;18.41;35.42;100279.31;4957915;28;1074;-56
2023/11/27 03:35:08;;;;;;;;;;;;;;;16.73;38.37;100270.25;4956636;28;1113;-57
2023/11/27 03:37:33;;;;;;;;;;;;;;;16.27;39.31;100276.50;4957193;28;1601;-57
2023/11/27 03:39:59;;;;;;;;;;;;;;;17.48;37.05;100275.63;4957882;28;1121;-56
2023/11/27 03:42:26;;;;;;;;;;;;;;;16.48;38.82;100283.69;4967368;28;1097;-54
2023/11/27 03:44:51;;;;;;;;;;;;;;;17.11;37.97;100279.59;4961344;28;1900;-56
2023/11/27 03:47:17;;;;;;;;;;;;;;;16.82;38.06;100293.41;4956982;28;1039;-54
2023/11/27 03:49:42;;;;;;;;;;;;;;;17.07;37.86;100303.81;4957982;28;1038;-55
2023/11/27 03:52:08;;;;;;;;;;;;;;;18.42;35.05;100298.78;4958798;28;942;-54
2023/11/27 03:54:33;;;;;;;;;;;;;;;16.82;37.98;100303.19;4961891;28;1062;-52
2023/11/27 03:56:59;;;;;;;;;;;;;;;16.62;38.99;100300.31;4961663;28;1057;-56
2023/11/27 03:59:24;;;;;;;;;;;;;;;17.05;37.38;100301.28;4961985;28;1122;-53
2023/11/27 04:01:50;;;;;;;;;;;;;;;16.64;38.70;100295.75;4961499;28;1073;-55
2023/11/27 04:04:16;;;;;;;;;;;;;;;18.65;34.88;100296.75;4960164;28;1030;-55
2023/11/27 04:06:44;;;;;;;;;;;;;;;14.51;43.33;100295.66;4961684;28;1910;-55
2023/11/27 04:09:13;;;;;;;;;;;;;;;17.89;36.44;100298.84;4961720;28;1081;-56
2023/11/27 04:11:39;;;;;;;;;;;;;;;17.55;36.63;100301.72;4961536;28;1367;-54
2023/11/27 04:14:05;;;;;;;;;;;;;;;16.48;38.84;100299.63;4961276;28;1053;-54
2023/11/27 04:16:30;;;;;;;;;;;;;;;18.17;35.78;100300.94;4960968;28;1200;-53
2023/11/27 04:18:56;;;;;;;;;;;;;;;16.72;38.10;100303.94;4959985;29;1069;-49
2023/11/27 04:21:21;;;;;;;;;;;;;;;17.19;37.75;100305.53;4961155;28;1061;-53
2023/11/27 04:23:47;;;;;;;;;;;;;;;17.75;36.04;100311.50;4960971;28;1041;-52
2023/11/27 04:26:13;;;;;;;;;;;;;;;14.80;42.62;100307.78;4960959;28;1984;-50
2023/11/27 04:28:39;;;;;;;;;;;;;;;17.96;36.15;100320.44;4961018;28;1017;-55
2023/11/27 04:31:05;;;;;;;;;;;;;;;16.77;37.86;100325.66;4960156;28;1183;-53
2023/11/27 04:33:30;;;;;;;;;;;;;;;16.21;39.12;100326.56;4961212;28;1086;-49
2023/11/27 04:35:56;;;;;;;;;;;;;;;17.22;37.65;100336.31;4959403;28;1034;-46
2023/11/27 04:38:21;;;;;;;;;;;;;;;16.72;37.92;100338.47;4972801;28;1129;-53
2023/11/27 04:40:47;;;;;;;;;;;;;;;16.11;39.06;100339.69;4960076;28;2168;-52
2023/11/27 04:43:12;;;;;;;;;;;;;;;17.90;36.19;100352.91;4960499;28;1060;-51
2023/11/27 04:45:38;;;;;;;;;;;;;;;16.45;38.74;100357.47;4960562;29;1907;-53
2023/11/27 04:48:04;;;;;;;;;;;;;;;18.41;35.21;100356.56;4960891;28;1058;-50
2023/11/27 04:50:29;;;;;;;;;;;;;;;15.73;39.36;100354.91;4960709;28;1014;-52
2023/11/27 04:52:55;;;;;;;;;;;;;;;16.87;38.62;100365.59;4959820;28;1092;-55
2023/11/27 04:55:20;;;;;;;;;;;;;;;18.63;35.00;100368.00;4960400;28;1089;-50
2023/11/27 04:57:46;;;;;;;;;;;;;;;14.88;41.87;100368.97;4959385;28;1197;-51
2023/11/27 05:00:15;;;;;;;;;;;;;;;17.12;38.13;100378.75;4960281;28;1073;-50
2023/11/27 05:02:40;;;;;;;;;;;;;;;17.56;36.56;100369.91;4964222;28;1046;-49
2023/11/27 05:05:06;;;;;;;;;;;;;;;16.44;38.68;100382.28;4977435;28;1902;-53
2023/11/27 05:07:32;;;;;;;;;;;;;;;17.89;36.26;100377.81;4979119;28;1065;-49
2023/11/27 05:09:57;;;;;;;;;;;;;;;16.78;38.00;100374.31;4962928;28;1920;-47
2023/11/27 05:12:23;;;;;;;;;;;;;;;16.19;39.36;100362.97;4948030;28;1137;-51
2023/11/27 05:14:48;;;;;;;;;;;;;;;17.88;36.14;100363.69;4966283;28;1092;-47
2023/11/27 05:17:14;;;;;;;;;;;;;;;16.69;37.84;100365.28;4978180;28;1032;-53
2023/11/27 05:19:39;;;;;;;;;;;;;;;17.44;36.83;100374.41;4956649;28;1040;-50
2023/11/27 05:22:05;;;;;;;;;;;;;;;17.64;36.10;100378.06;4974930;28;1033;-53
2023/11/27 05:24:30;;;;;;;;;;;;;;;16.50;38.17;100387.13;4979340;28;1052;-48
2023/11/27 05:26:56;;;;;;;;;;;;;;;18.38;35.10;100390.59;4978601;28;1910;-50
2023/11/27 05:29:21;;;;;;;;;;;;;;;15.24;40.72;100395.56;4973106;28;909;-47
2023/11/27 05:31:47;;;;;;;;;;;;;;;16.57;38.03;100398.09;4966371;28;1009;-46
2023/11/27 05:34:13;;;;;;;;;;;;;;;16.69;37.60;100405.13;4979068;28;1041;-50
2023/11/27 05:36:38;;;;;;;;;;;;;;;16.54;37.62;100412.47;4976440;28;1084;-48
2023/11/27 05:39:09;;;;;;;;;;;;;;;16.35;38.17;100415.75;4964918;28;2441;-49
2023/11/27 05:41:35;;;;;;;;;;;;;;;16.17;38.45;100426.78;4962574;28;1026;-50
2023/11/27 05:44:03;;;;;;;;;;;;;;;17.21;36.26;100428.50;4978389;28;1100;-50
2023/11/27 05:46:29;;;;;;;;;;;;;;;16.56;37.26;100428.28;4977944;28;1910;-51
2023/11/27 05:48:55;;;;;;;;;;;;;;;16.73;37.34;100427.78;4978817;28;1127;-48
2023/11/27 05:51:20;;;;;;;;;;;;;;;17.20;35.94;100421.50;4978487;28;1040;-51
2023/11/27 05:53:46;;;;;;;;;;;;;;;16.56;37.36;100430.94;4963257;28;1281;-51
2023/11/27 05:56:11;;;;;;;;;;;;;;;17.00;36.88;100425.72;4958243;28;1060;-51
2023/11/27 05:58:37;;;;;;;;;;;;;;;16.96;36.41;100437.56;4973485;28;1111;-52
2023/11/27 06:01:02;;;;;;;;;;;;;;;16.47;37.34;100437.81;4968973;28;1021;-49
2023/11/27 06:03:28;;;;;;;;;;;;;;;17.29;35.99;100435.88;4961661;28;1089;-50
2023/11/27 06:05:54;;;;;;;;;;;;;;;16.71;37.07;100448.34;4963872;28;1906;-48
2023/11/27 06:08:20;;;;;;;;;;;;;;;16.59;37.28;100458.13;4962311;28;1009;-50
2023/11/27 06:10:46;;;;;;;;;;;;;;;17.37;35.48;100464.47;4972253;28;2721;-50
2023/11/27 06:13:12;;;;;;;;;;;;;;;16.64;37.07;100471.03;4978413;28;1036;-51
2023/11/27 06:15:38;;;;;;;;;;;;;;;17.02;36.49;100472.47;4954015;28;1580;-47
2023/11/27 06:18:03;;;;;;;;;;;;;;;17.42;35.50;100480.91;4972889;28;1113;-50
2023/11/27 06:20:29;;;;;;;;;;;;;;;16.63;36.84;100499.38;4965710;28;1072;-49
2023/11/27 06:22:57;;;;;;;;;;;;;;;17.01;36.56;100500.03;4959270;28;1108;-49
2023/11/27 06:25:22;;;;;;;;;;;;;;;16.92;36.37;100503.41;4971321;28;1907;-51
2023/11/27 06:27:48;;;;;;;;;;;;;;;16.50;37.21;100507.47;4952847;28;929;-50
2023/11/27 06:30:14;;;;;;;;;;;;;;;17.54;35.42;100504.81;4973590;28;931;-48
2023/11/27 06:32:40;;;;;;;;;;;;;;;16.75;36.74;100512.69;4957887;28;1354;-50
2023/11/27 06:35:06;;;;;;;;;;;;;;;16.47;37.17;100513.00;4958084;29;1315;-51
2023/11/27 06:37:31;;;;;;;;;;;;;;;17.47;35.34;100513.28;4966096;28;1227;-48
2023/11/27 06:39:56;;;;;;;;;;;;;;;16.74;36.74;100517.16;4958320;28;2253;-47
2023/11/27 06:42:22;;;;;;;;;;;;;;;17.58;35.46;100522.22;4975394;28;971;-51
2023/11/27 06:44:48;;;;;;;;;;;;;;;17.50;35.42;100525.47;4964488;28;1243;-46
2023/11/27 06:47:13;;;;;;;;;;;;;;;16.82;36.57;100523.66;4977653;28;1914;-47
2023/11/27 06:49:39;;;;;;;;;;;;;;;16.60;37.23;100518.22;4961424;28;1157;-48
2023/11/27 06:52:04;;;;;;;;;;;;;;;17.52;35.15;100528.88;4967144;28;1116;-46
2023/11/27 06:54:30;;;;;;;;;;;;;;;16.77;36.47;100526.69;4976740;28;873;-52
2023/11/27 06:56:56;;;;;;;;;;;;;;;17.13;36.08;100532.78;4977646;28;1053;-47
2023/11/27 06:59:21;;;;;;;;;;;;;;;17.29;35.52;100544.00;4974981;28;1037;-51
2023/11/27 07:01:47;;;;;;;;;;;;;;;16.60;37.10;100544.78;4958142;28;1029;-49
2023/11/27 07:04:13;;;;;;;;;;;;;;;17.02;36.22;100546.88;4973685;28;1105;-53
2023/11/27 07:06:39;;;;;;;;;;;;;;;17.15;35.96;100558.41;4960001;28;1971;-47
2023/11/27 07:09:05;;;;;;;;;;;;;;;16.58;37.02;100559.97;4969890;28;2305;-50
2023/11/27 07:11:33;;;;;;;;;;;;;;;17.54;35.34;100550.88;4977317;28;1088;-53
2023/11/27 07:14:00;;;;;;;;;;;;;;;16.97;35.95;100551.72;4963130;28;1124;-45
2023/11/27 07:16:29;;;;;;;;;;;;;;;16.60;37.03;100558.06;4965742;28;1037;-49
2023/11/27 07:18:57;;;;;;;;;;;;;;;17.67;34.78;100564.03;4955345;28;1058;-52
2023/11/27 07:21:26;;;;;;;;;;;;;;;16.81;36.11;100562.69;4968685;28;1101;-47
2023/11/27 07:23:53;;;;;;;;;;;;;;;17.16;35.84;100568.91;4973380;28;1129;-49
2023/11/27 07:26:20;;;;;;;;;;;;;;;17.17;35.67;100578.56;4977280;28;1911;-51
2023/11/27 07:28:45;;;;;;;;;;;;;;;16.61;36.59;100572.19;4963420;28;1156;-46
2023/11/27 07:31:11;;;;;;;;;;;;;;;16.93;36.19;100576.00;4961621;29;1375;-50
2023/11/27 07:33:38;;;;;;;;;;;;;;;17.12;35.77;100573.63;4969101;28;1156;-51
2023/11/27 07:36:05;;;;;;;;;;;;;;;16.55;36.89;100576.13;4961431;28;1204;-48
2023/11/27 07:38:32;;;;;;;;;;;;;;;17.53;35.07;100578.44;4961153;28;1289;-46
2023/11/27 07:40:57;;;;;;;;;;;;;;;16.95;35.94;100580.22;4963673;28;1787;-49
2023/11/27 07:43:23;;;;;;;;;;;;;;;16.62;36.55;100584.50;4963930;28;1088;-49
2023/11/27 07:45:48;;;;;;;;;;;;;;;17.47;35.13;100582.44;4963476;28;1969;-51
2023/11/27 07:48:14;;;;;;;;;;;;;;;16.67;36.52;100585.00;4961034;29;1157;-51
2023/11/27 07:50:39;;;;;;;;;;;;;;;17.33;35.57;100599.47;4960852;29;1081;-49
2023/11/27 07:53:05;;;;;;;;;;;;;;;17.22;35.64;100607.44;4963437;28;1330;-48
2023/11/27 07:55:32;;;;;;;;;;;;;;;16.59;36.76;100609.47;4973609;28;1048;-52
2023/11/27 07:57:57;;;;;;;;;;;;;;;17.29;35.45;100607.81;4980536;28;1100;-50
2023/11/27 08:00:26;;;;;;;;;;;;;;;17.17;35.44;100606.97;4968810;28;1172;-51
2023/11/27 08:02:53;;;;;;;;;;;;;;;16.56;36.58;100620.34;4973987;28;1088;-51
2023/11/27 08:05:20;;;;;;;;;;;;;;;17.46;35.33;100619.78;4965008;28;1910;-52
2023/11/27 08:07:47;;;;;;;;;;;;;;;17.07;35.62;100618.28;4980132;28;1108;-50
2023/11/27 08:10:12;;;;;;;;;;;;;;;16.92;36.31;100622.09;4968029;28;2420;-47
2023/11/27 08:12:38;;;;;;;;;;;;;;;17.73;34.68;100619.41;4979101;28;1038;-50
2023/11/27 08:15:07;;;;;;;;;;;;;;;16.91;35.96;100621.28;4967545;28;1149;-49
2023/11/27 08:17:33;;;;;;;;;;;;;;;16.92;36.08;100627.44;4965616;28;1085;-50
2023/11/27 08:20:00;;;;;;;;;;;;;;;17.50;34.97;100621.22;4967897;28;1302;-47
2023/11/27 08:22:25;;;;;;;;;;;;;;;16.74;36.17;100619.91;4961408;28;1117;-51
2023/11/27 08:24:52;;;;;;;;;;;;;;;17.21;35.57;100622.56;4960791;28;1323;-50
2023/11/27 08:27:20;;;;;;;;;;;;;;;17.24;35.24;100616.16;4960717;28;1906;-52
2023/11/27 08:29:46;;;;;;;;;;;;;;;16.59;36.33;100621.91;4959539;28;1147;-49
2023/11/27 08:32:11;;;;;;;;;;;;;;;17.53;34.97;100618.34;4957669;28;1272;-49
2023/11/27 08:34:37;;;;;;;;;;;;;;;16.86;35.88;100620.78;4960788;28;1212;-51
2023/11/27 08:37:06;;;;;;;;;;;;;;;16.98;36.20;100632.28;4963578;28;1315;-54
2023/11/27 08:39:31;;;;;;;;;;;;;;;17.44;34.99;100625.22;4952113;29;1820;-53
2023/11/27 08:41:57;;;;;;;;;;;;;;;16.67;36.19;100616.00;4963010;28;1092;-53
2023/11/27 08:44:22;;;;;;;;;;;;;;;17.24;35.46;100618.81;4957156;28;1230;-53
2023/11/27 08:46:48;;;;;;;;;;;;;;;17.27;34.97;100615.91;4960047;28;1969;-49
2023/11/27 08:49:14;;;;;;;;;;;;;;;16.58;36.44;100628.19;4961043;29;1125;-49
2023/11/27 08:51:43;;;;;;;;;;;;;;;17.71;34.64;100629.34;4960338;28;1160;-48
2023/11/27 08:54:09;;;;;;;;;;;;;;;16.89;35.98;100623.19;4955778;28;1432;-52
2023/11/27 08:56:34;;;;;;;;;;;;;;;16.61;36.90;100634.13;4966188;28;1354;-50
2023/11/27 08:59:01;;;;;;;;;;;;;;;17.66;34.62;100630.66;4979612;28;1045;-52
2023/11/27 09:01:27;;;;;;;;;;;;;;;16.79;35.98;100615.09;4970344;28;1045;-51
2023/11/27 09:03:52;;;;;;;;;;;;;;;16.64;36.52;100614.44;4959836;29;1417;-50
2023/11/27 09:06:19;;;;;;;;;;;;;;;17.59;34.74;100615.19;4962177;28;1964;-51
2023/11/27 09:08:45;;;;;;;;;;;;;;;16.73;36.00;100615.56;4971339;28;1878;-54
2023/11/27 09:11:11;;;;;;;;;;;;;;;17.10;35.60;100618.06;4967088;28;1414;-54
2023/11/27 09:13:37;;;;;;;;;;;;;;;17.22;35.30;100618.94;4969395;28;911;-50
2023/11/27 09:16:02;;;;;;;;;;;;;;;16.66;36.38;100617.84;4963787;28;1413;-51
2023/11/27 09:18:28;;;;;;;;;;;;;;;17.66;34.76;100612.03;4965920;28;1319;-52
2023/11/27 09:20:54;;;;;;;;;;;;;;;16.97;35.84;100610.19;4972921;28;1189;-54
2023/11/27 09:23:19;;;;;;;;;;;;;;;16.68;36.28;100615.06;4959864;28;1393;-53
2023/11/27 09:25:46;;;;;;;;;;;;;;;17.53;34.75;100626.31;4969714;28;1890;-51
2023/11/27 09:28:11;;;;;;;;;;;;;;;16.81;35.92;100609.66;4965181;28;1109;-54
2023/11/27 09:30:37;;;;;;;;;;;;;;;17.26;35.55;100619.53;4969789;28;1024;-54
2023/11/27 09:33:04;;;;;;;;;;;;;;;17.19;35.53;100613.00;4971701;28;1196;-54
2023/11/27 09:35:29;;;;;;;;;;;;;;;16.61;36.27;100615.53;4959640;28;1113;-50
2023/11/27 09:37:55;;;;;;;;;;;;;;;17.47;35.24;100605.50;4969856;28;1089;-54
2023/11/27 09:40:21;;;;;;;;;;;;;;;17.02;35.91;100612.47;4957249;28;2331;-55
2023/11/27 09:42:47;;;;;;;;;;;;;;;16.63;36.55;100605.63;4963955;28;1077;-53
2023/11/27 09:45:13;;;;;;;;;;;;;;;17.41;35.09;100611.31;4959229;28;1899;-53
2023/11/27 09:47:39;;;;;;;;;;;;;;;16.71;36.56;100620.13;4976445;28;1116;-53
2023/11/27 09:50:09;;;;;;;;;;;;;;;17.37;35.55;100621.34;4967371;28;1120;-56
2023/11/27 09:52:46;;;;;;;;;;;;;;;17.19;35.60;100610.34;4964300;28;1041;-53
2023/11/27 09:55:11;;;;;;;;;;;;;;;16.55;36.68;100612.50;4966509;28;1044;-51
2023/11/27 09:57:38;;;;;;;;;;;;;;;17.41;35.35;100619.31;4970484;28;1168;-52
2023/11/27 10:00:07;;;;;;;;;;;;;;;17.08;35.79;100608.50;4971103;28;1216;-53
2023/11/27 10:02:33;;;;;;;;;;;;;;;16.69;36.55;100599.00;4959203;28;1037;-52
2023/11/27 10:05:04;;;;;;;;;;;;;;;17.53;34.92;100589.09;4958481;28;1260;-55
2023/11/27 10:07:32;;;;;;;;;;;;;;;16.69;36.44;100590.19;4972439;28;1973;-53
2023/11/27 10:09:58;;;;;;;;;;;;;;;16.95;36.15;100593.50;4972986;28;2287;-52
2023/11/27 10:12:28;;;;;;;;;;;;;;;17.60;34.71;100597.44;4964017;28;1251;-48
2023/11/27 10:14:57;;;;;;;;;;;;;;;16.80;36.36;100586.72;4958832;28;1435;-48
2023/11/27 10:17:24;;;;;;;;;;;;;;;17.03;35.93;100600.91;4970179;28;1113;-48
2023/11/27 10:19:53;;;;;;;;;;;;;;;17.32;35.31;100592.47;4962396;28;884;-49
2023/11/27 10:22:19;;;;;;;;;;;;;;;16.67;36.60;100600.06;4965259;28;1090;-49
2023/11/27 10:24:44;;;;;;;;;;;;;;;16.83;36.10;100592.63;4971487;28;1093;-49
2023/11/27 10:27:10;;;;;;;;;;;;;;;17.44;35.00;100601.28;4958589;28;1981;-46
2023/11/27 10:29:35;;;;;;;;;;;;;;;16.64;36.45;100580.78;4971563;28;1141;-48
2023/11/27 10:32:02;;;;;;;;;;;;;;;16.73;36.48;100592.47;4966201;28;1096;-46
2023/11/27 10:34:33;;;;;;;;;;;;;;;17.62;34.64;100598.13;4960638;28;1081;-48
2023/11/27 10:37:01;;;;;;;;;;;;;;;16.75;36.51;100587.06;4971424;28;1291;-50
2023/11/27 10:39:31;;;;;;;;;;;;;;;17.14;35.88;100600.06;4971665;28;2456;-52
2023/11/27 10:41:57;;;;;;;;;;;;;;;17.11;35.75;100595.88;4958339;28;1299;-51
2023/11/27 10:44:24;;;;;;;;;;;;;;;16.52;36.84;100597.63;4962851;28;955;-48
2023/11/27 10:46:50;;;;;;;;;;;;;;;17.53;35.08;100609.50;4969455;28;1902;-52
2023/11/27 10:49:16;;;;;;;;;;;;;;;17.01;35.96;100577.09;4971356;28;1026;-50
2023/11/27 10:51:47;;;;;;;;;;;;;;;16.59;36.93;100592.69;4969995;28;1030;-53
2023/11/27 10:54:14;;;;;;;;;;;;;;;17.53;35.00;100585.56;4957957;28;1128;-57
2023/11/27 10:56:42;;;;;;;;;;;;;;;16.77;36.39;100590.44;4977494;28;1048;-57
2023/11/27 10:59:09;;;;;;;;;;;;;;;16.93;36.18;100594.59;4963517;28;1062;-56
2023/11/27 11:01:40;;;;;;;;;;;;;;;17.66;34.90;100590.75;4977022;28;1057;-54
2023/11/27 11:04:09;;;;;;;;;;;;;;;16.79;36.46;100600.94;4961130;28;1219;-56
2023/11/27 11:06:45;;;;;;;;;;;;;;;16.75;36.53;100576.44;4957643;28;1975;-58
2023/11/27 11:09:12;;;;;;;;;;;;;;;17.31;35.55;100584.63;4957941;28;2364;-54
2023/11/27 11:11:39;;;;;;;;;;;;;;;16.65;36.70;100586.91;4984204;28;1017;-55
2023/11/27 11:14:06;;;;;;;;;;;;;;;17.19;35.83;100583.75;4963248;28;1200;-57
2023/11/27 11:16:36;;;;;;;;;;;;;;;17.07;35.91;100585.53;4964997;28;1077;-54
2023/11/27 11:19:07;;;;;;;;;;;;;;;16.55;37.17;100578.78;4956427;28;1144;-50
2023/11/27 11:21:42;;;;;;;;;;;;;;;17.66;35.02;100601.41;4970070;28;922;-54
2023/11/27 11:24:08;;;;;;;;;;;;;;;16.83;36.47;100584.66;4961974;28;1354;-50
2023/11/27 11:26:54;;;;;;;;;;;;;;;17.12;36.10;100588.72;4957899;28;1899;-49
2023/11/27 11:29:26;;;;;;;;;;;;;;;17.16;35.85;100590.19;4957891;28;1405;-46
2023/11/27 11:31:57;;;;;;;;;;;;;;;17.00;35.65;100583.34;4954545;28;1320;-50
2023/11/27 11:34:23;;;;;;;;;;;;;;;17.92;34.07;100574.47;4952880;28;1675;-44
2023/11/27 11:36:58;;;;;;;;;;;;;;;17.74;34.91;100570.56;4957787;28;1059;-45
2023/11/27 11:39:26;;;;;;;;;;;;;;;16.74;37.03;100570.28;4956913;28;1809;-56
2023/11/27 11:42:01;;;;;;;;;;;;;;;17.69;35.74;100580.72;4957096;28;1191;-58
2023/11/27 11:44:28;;;;;;;;;;;;;;;16.79;37.26;100583.22;4955671;28;1100;-55
2023/11/27 11:46:53;;;;;;;;;;;;;;;17.07;37.27;100582.88;4956557;29;2120;-56
2023/11/27 11:49:24;;;;;;;;;;;;;;;17.48;36.74;100578.78;4957378;28;1351;-53
2023/11/27 11:52:08;;;;;;;;;;;;;;;17.68;36.71;100586.16;4957475;28;1096;-56
2023/11/27 11:54:40;;;;;;;;;;;;;;;17.79;36.26;100571.97;4951568;29;1257;-54
2023/11/27 11:57:12;;;;;;;;;;;;;;;17.97;35.81;100573.16;4949327;28;1368;-58
2023/11/27 11:59:39;;;;;;;;;;;;;;;18.02;35.52;100564.78;4954888;29;1276;-57
2023/11/27 12:02:14;;;;;;;;;;;;;;;17.45;35.29;100438.09;4943917;29;1332;-53
2023/11/27 12:04:40;;;;;;;;;;;;;;;18.48;35.21;100569.94;4953226;29;1632;-52
2023/11/27 12:07:07;;;;;;;;;;;;;;;18.56;35.11;100555.97;4951646;28;1920;-59
2023/11/27 12:09:33;;;;;;;;;;;;;;;18.77;35.16;100569.28;4954614;28;1833;-51
2023/11/27 12:12:00;;;;;;;;;;;;;;;18.90;35.27;100574.41;4951070;28;1269;-58
2023/11/27 12:14:32;;;;;;;;;;;;;;;19.07;35.22;100567.63;4959804;28;1339;-53
2023/11/27 12:16:58;;;;;;;;;;;;;;;19.15;35.35;100574.97;4958254;28;1351;-57
2023/11/27 12:19:24;;;;;;;;;;;;;;;19.20;35.29;100586.09;4954854;28;1215;-54
2023/11/27 12:21:53;;;;;;;;;;;;;;;19.31;35.40;100586.97;4946332;28;1043;-53
2023/11/27 12:24:19;;;;;;;;;;;;;;;19.43;35.19;100587.72;4957660;29;1350;-51
2023/11/27 12:26:51;;;;;;;;;;;;;;;19.50;35.22;100590.72;4953205;28;1974;-58
2023/11/27 12:29:19;;;;;;;;;;;;;;;17.30;39.05;100573.13;4960235;28;1345;-59
2023/11/27 12:31:50;;;;;;;;;;;;;;;18.02;38.15;100583.41;4964668;28;1299;-60
2023/11/27 12:34:21;;;;;;;;;;;;;;;18.74;36.72;100582.88;4959886;29;1445;-54
2023/11/27 12:36:46;;;;;;;;;;;;;;;19.06;36.12;100579.28;4959670;28;1278;-54
2023/11/27 12:39:16;;;;;;;;;;;;;;;19.21;35.86;100578.94;4953742;28;1872;-59
2023/11/27 12:41:43;;;;;;;;;;;;;;;19.39;35.57;100578.28;4959502;28;1550;-56
2023/11/27 12:44:13;;;;;;;;;;;;;;;19.55;35.32;100586.63;4963259;28;1239;-51